createdAt,value
2023-09-29T00:00:22.342Z,98214.88
2023-09-29T00:02:51.786Z,98218.25
2023-09-29T00:05:20.508Z,98220.16
2023-09-29T00:07:49.191Z,98213.66
2023-09-29T00:10:19.088Z,98210.66
2023-09-29T00:12:47.902Z,98214.84
2023-09-29T00:15:16.289Z,98220.00
2023-09-29T00:17:44.661Z,98211.56
2023-09-29T00:20:19.258Z,98203.97
2023-09-29T00:22:48.334Z,98212.59
2023-09-29T00:25:18.211Z,98205.25
2023-09-29T00:27:46.405Z,98208.47
2023-09-29T00:30:16.018Z,98209.78
2023-09-29T00:32:48.410Z,98209.28
2023-09-29T00:35:25.702Z,98195.06
2023-09-29T00:37:54.669Z,98197.72
2023-09-29T00:40:24.663Z,98199.63
2023-09-29T00:42:53.965Z,98197.44
2023-09-29T00:45:27.906Z,98200.97
2023-09-29T00:47:59.086Z,98195.00
2023-09-29T00:50:29.021Z,98202.88
2023-09-29T00:53:01.124Z,98207.22
2023-09-29T00:55:32.137Z,98204.44
2023-09-29T00:58:01.041Z,98209.47
2023-09-29T01:00:37.270Z,98210.88
2023-09-29T01:03:07.881Z,98216.31
2023-09-29T01:05:40.923Z,98217.44
2023-09-29T01:08:11.931Z,98220.16
2023-09-29T01:10:42.850Z,98222.34
2023-09-29T01:13:11.720Z,98209.56
2023-09-29T01:15:41.015Z,98205.25
2023-09-29T01:18:10.676Z,98204.25
2023-09-29T01:20:42.386Z,98192.91
2023-09-29T01:23:11.150Z,98198.69
2023-09-29T01:25:41.521Z,98191.38
2023-09-29T01:28:11.774Z,98194.91
2023-09-29T01:30:42.308Z,98197.28
2023-09-29T01:33:10.647Z,98207.59
2023-09-29T01:35:40.950Z,98197.81
2023-09-29T01:38:09.308Z,98197.34
2023-09-29T01:40:37.447Z,98206.31
2023-09-29T01:43:07.152Z,98201.97
2023-09-29T01:45:35.477Z,98200.91
2023-09-29T01:48:03.630Z,98202.81
2023-09-29T01:50:34.182Z,98194.94
2023-09-29T01:53:04.382Z,98202.25
2023-09-29T01:55:32.879Z,98206.88
2023-09-29T01:58:01.790Z,98201.72
2023-09-29T02:00:32.657Z,98205.53
2023-09-29T02:03:06.689Z,98208.25
2023-09-29T02:05:34.931Z,98207.44
2023-09-29T02:08:06.027Z,98202.81
2023-09-29T02:10:34.381Z,98208.53
2023-09-29T02:13:05.721Z,98196.59
2023-09-29T02:15:36.586Z,98198.50
2023-09-29T02:18:05.648Z,98203.94
2023-09-29T02:20:35.433Z,98203.63
2023-09-29T02:23:04.125Z,98201.22
2023-09-29T02:25:34.009Z,98201.22
2023-09-29T02:28:02.633Z,98201.50
2023-09-29T02:30:31.597Z,98194.75
2023-09-29T02:33:01.058Z,98189.41
2023-09-29T02:35:29.580Z,98190.78
2023-09-29T02:37:57.942Z,98187.00
2023-09-29T02:40:25.965Z,98178.97
2023-09-29T02:42:55.347Z,98184.41
2023-09-29T02:45:25.871Z,98180.06
2023-09-29T02:47:54.525Z,98177.06
2023-09-29T02:50:26.447Z,98170.78
2023-09-29T02:52:55.444Z,98179.22
2023-09-29T02:55:25.408Z,98178.13
2023-09-29T02:57:53.704Z,98172.94
2023-09-29T03:00:23.964Z,98180.25
2023-09-29T03:02:53.863Z,98172.03
2023-09-29T03:05:25.321Z,98168.72
2023-09-29T03:07:55.964Z,98178.03
2023-09-29T03:10:27.737Z,98179.25
2023-09-29T03:12:58.813Z,98173.81
2023-09-29T03:15:28.022Z,98165.38
2023-09-29T03:18:00.079Z,98160.22
2023-09-29T03:20:30.598Z,98169.16
2023-09-29T03:23:05.773Z,98170.22
2023-09-29T03:25:34.000Z,98165.22
2023-09-29T03:28:02.839Z,98165.00
2023-09-29T03:30:32.722Z,98156.13
2023-09-29T03:33:02.224Z,98154.22
2023-09-29T03:35:32.142Z,98163.19
2023-09-29T03:38:00.217Z,98153.91
2023-09-29T03:40:28.785Z,98157.88
2023-09-29T03:42:57.149Z,98165.75
2023-09-29T03:45:25.296Z,98164.06
2023-09-29T03:47:55.929Z,98167.94
2023-09-29T03:50:24.125Z,98180.88
2023-09-29T03:52:53.578Z,98183.94
2023-09-29T03:55:21.875Z,98177.97
2023-09-29T03:57:50.512Z,98169.53
2023-09-29T04:00:21.117Z,98169.50
2023-09-29T04:02:52.280Z,98173.06
2023-09-29T04:05:21.582Z,98178.78
2023-09-29T04:07:49.646Z,98180.72
2023-09-29T04:10:22.153Z,98180.47
2023-09-29T04:12:51.104Z,98185.38
2023-09-29T04:15:19.310Z,98186.75
2023-09-29T04:17:47.878Z,98186.47
2023-09-29T04:20:16.898Z,98198.16
2023-09-29T04:22:45.079Z,98199.53
2023-09-29T04:25:13.202Z,98213.97
2023-09-29T04:27:42.810Z,98202.88
2023-09-29T04:30:13.969Z,98203.97
2023-09-29T04:32:44.824Z,98196.41
2023-09-29T04:35:13.050Z,98196.41
2023-09-29T04:37:41.445Z,98211.56
2023-09-29T04:40:10.618Z,98214.78
2023-09-29T04:42:38.805Z,98216.69
2023-09-29T04:45:10.443Z,98221.63
2023-09-29T04:47:42.796Z,98216.47
2023-09-29T04:50:12.656Z,98228.41
2023-09-29T04:52:40.649Z,98247.69
2023-09-29T04:55:09.456Z,98246.88
2023-09-29T04:57:37.781Z,98245.00
2023-09-29T05:00:07.822Z,98244.19
2023-09-29T05:02:37.428Z,98246.09
2023-09-29T05:05:06.143Z,98247.44
2023-09-29T05:07:34.299Z,98228.97
2023-09-29T05:10:02.327Z,98225.19
2023-09-29T05:12:31.623Z,98223.28
2023-09-29T05:14:59.620Z,98217.56
2023-09-29T05:17:40.707Z,98221.09
2023-09-29T05:20:17.365Z,98216.47
2023-09-29T05:22:45.446Z,98217.53
2023-09-29T05:25:13.693Z,98229.19
2023-09-29T05:27:41.722Z,98235.94
2023-09-29T05:30:10.643Z,98235.38
2023-09-29T05:32:38.917Z,98239.47
2023-09-29T05:35:08.057Z,98237.03
2023-09-29T05:37:37.773Z,98228.91
2023-09-29T05:40:07.958Z,98231.88
2023-09-29T05:42:50.984Z,98225.34
2023-09-29T05:45:21.755Z,98241.38
2023-09-29T05:47:50.853Z,98241.09
2023-09-29T05:50:19.943Z,98237.81
2023-09-29T05:53:07.401Z,98239.41
2023-09-29T05:55:37.960Z,98242.91
2023-09-29T05:58:06.661Z,98246.41
2023-09-29T06:00:34.675Z,98250.72
2023-09-29T06:03:03.188Z,98235.47
2023-09-29T06:05:31.480Z,98237.63
2023-09-29T06:08:00.957Z,98239.25
2023-09-29T06:10:29.817Z,98246.03
2023-09-29T06:12:57.909Z,98252.19
2023-09-29T06:15:25.990Z,98252.97
2023-09-29T06:17:54.059Z,98254.53
2023-09-29T06:20:22.156Z,98258.84
2023-09-29T06:22:50.574Z,98253.94
2023-09-29T06:25:20.172Z,98246.81
2023-09-29T06:27:48.653Z,98247.81
2023-09-29T06:30:16.945Z,98250.97
2023-09-29T06:32:45.595Z,98253.59
2023-09-29T06:35:14.140Z,98254.84
2023-09-29T06:37:42.095Z,98248.22
2023-09-29T06:40:11.975Z,98259.00
2023-09-29T06:42:41.709Z,98260.22
2023-09-29T06:45:11.171Z,98270.47
2023-09-29T06:47:39.322Z,98262.97
2023-09-29T06:50:11.741Z,98269.53
2023-09-29T06:52:40.817Z,98266.53
2023-09-29T06:55:09.481Z,98265.13
2023-09-29T06:57:37.549Z,98269.41
2023-09-29T07:00:09.894Z,98275.31
2023-09-29T07:02:38.813Z,98263.47
2023-09-29T07:05:07.741Z,98273.44
2023-09-29T07:07:36.024Z,98282.06
2023-09-29T07:10:04.072Z,98281.41
2023-09-29T07:12:32.164Z,98273.97
2023-09-29T07:15:00.744Z,98274.69
2023-09-29T07:17:30.329Z,98276.22
2023-09-29T07:19:58.292Z,98276.91
2023-09-29T07:22:26.323Z,98271.38
2023-09-29T07:24:59.085Z,98273.41
2023-09-29T07:27:29.021Z,98261.53
2023-09-29T07:29:57.116Z,98265.72
2023-09-29T07:32:27.651Z,98270.69
2023-09-29T07:34:57.132Z,98270.50
2023-09-29T07:37:25.104Z,98270.31
2023-09-29T07:39:53.127Z,98258.59
2023-09-29T07:42:21.037Z,98266.53
2023-09-29T07:44:49.020Z,98270.38
2023-09-29T07:47:17.071Z,98267.94
2023-09-29T07:49:45.090Z,98271.06
2023-09-29T07:52:14.604Z,98266.00
2023-09-29T07:54:42.624Z,98254.94
2023-09-29T07:57:10.622Z,98264.44
2023-09-29T07:59:39.963Z,98272.34
2023-09-29T08:02:08.153Z,98286.50
2023-09-29T08:04:36.265Z,98290.25
2023-09-29T08:07:06.039Z,98288.34
2023-09-29T08:09:35.641Z,98288.22
2023-09-29T08:12:04.026Z,98295.00
2023-09-29T08:14:32.853Z,98283.44
2023-09-29T08:17:01.050Z,98286.19
2023-09-29T08:19:29.849Z,98289.47
2023-09-29T08:21:57.760Z,98287.47
2023-09-29T08:24:25.646Z,98292.56
2023-09-29T08:26:56.975Z,98298.44
2023-09-29T08:29:25.356Z,98297.13
2023-09-29T08:31:55.080Z,98289.00
2023-09-29T08:34:23.299Z,98290.50
2023-09-29T08:36:52.733Z,98296.31
2023-09-29T08:39:21.459Z,98287.09
2023-09-29T08:42:02.149Z,98281.09
2023-09-29T08:44:31.034Z,98281.91
2023-09-29T08:47:02.653Z,98274.28
2023-09-29T08:49:47.909Z,98283.03
2023-09-29T08:52:21.006Z,98273.69
2023-09-29T08:54:49.785Z,98283.22
2023-09-29T08:57:21.612Z,98277.03
2023-09-29T08:59:51.418Z,98279.75
2023-09-29T09:02:19.502Z,98277.97
2023-09-29T09:04:49.025Z,98279.09
2023-09-29T09:07:17.989Z,98271.78
2023-09-29T09:09:49.338Z,98278.75
2023-09-29T09:12:17.585Z,98281.38
2023-09-29T09:14:47.240Z,98267.78
2023-09-29T09:17:15.495Z,98267.97
2023-09-29T09:19:52.414Z,98271.19
2023-09-29T09:22:38.952Z,98257.78
2023-09-29T09:25:14.199Z,98261.13
2023-09-29T09:27:44.695Z,98259.63
2023-09-29T09:30:23.395Z,98259.31
2023-09-29T09:32:51.613Z,98259.03
2023-09-29T09:35:26.941Z,98265.06
2023-09-29T09:37:55.562Z,98259.06
2023-09-29T09:40:26.315Z,98253.91
2023-09-29T09:42:55.632Z,98254.53
2023-09-29T09:45:27.108Z,98253.94
2023-09-29T09:47:59.784Z,98255.94
2023-09-29T09:50:29.979Z,98251.16
2023-09-29T09:53:01.235Z,98254.31
2023-09-29T09:55:38.468Z,98254.19
2023-09-29T09:58:10.891Z,98251.44
2023-09-29T10:00:42.673Z,98247.50
2023-09-29T10:03:13.915Z,98256.13
2023-09-29T10:05:45.278Z,98252.09
2023-09-29T10:08:14.061Z,98245.88
2023-09-29T10:10:44.121Z,98246.34
2023-09-29T10:13:13.759Z,98235.28
2023-09-29T10:15:43.542Z,98246.69
2023-09-29T10:18:19.263Z,98245.66
2023-09-29T10:20:51.099Z,98241.31
2023-09-29T10:23:20.006Z,98250.63
2023-09-29T10:25:59.261Z,98248.41
2023-09-29T10:28:33.046Z,98244.25
2023-09-29T10:31:10.417Z,98246.44
2023-09-29T10:33:54.422Z,98242.88
2023-09-29T10:36:24.614Z,98250.25
2023-09-29T10:38:53.148Z,98247.38
2023-09-29T10:41:34.220Z,98249.53
2023-09-29T10:44:05.138Z,98247.59
2023-09-29T10:46:34.795Z,98244.63
2023-09-29T10:49:03.230Z,98243.16
2023-09-29T10:51:33.349Z,98243.25
2023-09-29T10:54:07.929Z,98236.44
2023-09-29T10:56:37.681Z,98227.22
2023-09-29T10:59:08.051Z,98225.19
2023-09-29T11:01:37.807Z,98233.34
2023-09-29T11:04:09.189Z,98233.25
2023-09-29T11:06:43.375Z,98241.84
2023-09-29T11:09:18.004Z,98234.72
2023-09-29T11:11:46.487Z,98225.25
2023-09-29T11:14:14.822Z,98222.69
2023-09-29T11:16:44.138Z,98213.47
2023-09-29T11:19:16.057Z,98214.53
2023-09-29T11:21:44.375Z,98206.75
2023-09-29T11:24:14.978Z,98204.97
2023-09-29T11:26:45.011Z,98197.34
2023-09-29T11:29:22.588Z,98196.78
2023-09-29T11:31:54.965Z,98193.06
2023-09-29T11:34:24.507Z,98186.06
2023-09-29T11:36:53.306Z,98185.50
2023-09-29T11:39:23.902Z,98179.81
2023-09-29T11:41:52.488Z,98182.78
2023-09-29T11:44:22.454Z,98183.66
2023-09-29T11:46:50.422Z,98175.72
2023-09-29T11:49:20.841Z,98168.00
2023-09-29T11:51:53.912Z,98173.31
2023-09-29T11:54:21.982Z,98174.94
2023-09-29T11:56:50.059Z,98167.50
2023-09-29T11:59:18.167Z,98170.78
2023-09-29T12:01:46.077Z,98167.63
2023-09-29T12:04:14.452Z,98164.19
2023-09-29T12:06:44.011Z,98156.47
2023-09-29T12:09:12.170Z,98163.75
2023-09-29T12:11:40.150Z,98147.91
2023-09-29T12:14:09.736Z,98150.34
2023-09-29T12:16:37.852Z,98153.66
2023-09-29T12:19:05.978Z,98148.53
2023-09-29T12:21:34.294Z,98145.22
2023-09-29T12:24:03.913Z,98145.69
2023-09-29T12:26:31.856Z,98146.25
2023-09-29T12:29:00.084Z,98137.00
2023-09-29T12:31:28.057Z,98126.50
2023-09-29T12:33:57.764Z,98130.78
2023-09-29T12:36:26.108Z,98141.22
2023-09-29T12:38:54.155Z,98150.00
2023-09-29T12:41:24.209Z,98145.63
2023-09-29T12:43:52.148Z,98148.38
2023-09-29T12:46:20.616Z,98137.31
2023-09-29T12:48:48.973Z,98140.75
2023-09-29T12:51:27.268Z,98140.09
2023-09-29T12:53:58.068Z,98140.75
2023-09-29T12:56:28.321Z,98143.91
2023-09-29T12:58:57.480Z,98135.13
2023-09-29T13:01:26.679Z,98142.44
2023-09-29T13:03:55.018Z,98136.00
2023-09-29T13:06:25.110Z,98137.59
2023-09-29T13:08:55.181Z,98154.94
2023-09-29T13:11:23.527Z,98148.53
2023-09-29T13:13:52.845Z,98141.44
2023-09-29T13:16:20.828Z,98154.13
2023-09-29T13:18:50.529Z,98143.16
2023-09-29T13:21:20.388Z,98149.00
2023-09-29T13:23:48.606Z,98152.00
2023-09-29T13:26:16.912Z,98150.56
2023-09-29T13:28:44.912Z,98151.00
2023-09-29T13:31:14.643Z,98145.38
2023-09-29T13:33:42.716Z,98156.47
2023-09-29T13:36:10.857Z,98157.03
2023-09-29T13:38:38.925Z,98149.66
2023-09-29T13:41:07.299Z,98158.00
2023-09-29T13:43:35.326Z,98163.03
2023-09-29T13:46:06.610Z,98160.44
2023-09-29T13:48:35.976Z,98160.13
2023-09-29T13:51:05.858Z,98165.81
2023-09-29T13:53:34.161Z,98164.84
2023-09-29T13:56:06.662Z,98168.06
2023-09-29T13:58:34.799Z,98165.13
2023-09-29T14:01:02.843Z,98175.47
2023-09-29T14:03:31.228Z,98167.00
2023-09-29T14:06:00.767Z,98177.31
2023-09-29T14:08:28.823Z,98174.13
2023-09-29T14:10:56.945Z,98172.06
2023-09-29T14:13:25.462Z,98179.81
2023-09-29T14:15:54.501Z,98180.97
2023-09-29T14:18:22.624Z,98175.75
2023-09-29T14:20:53.269Z,98178.88
2023-09-29T14:23:25.267Z,98182.00
2023-09-29T14:25:54.105Z,98176.81
2023-09-29T14:28:22.375Z,98181.78
2023-09-29T14:30:50.280Z,98182.44
2023-09-29T14:33:18.523Z,98187.97
2023-09-29T14:35:49.334Z,98180.66
2023-09-29T14:38:18.836Z,98180.00
2023-09-29T14:40:48.220Z,98180.88
2023-09-29T14:43:16.613Z,98187.81
2023-09-29T14:45:45.822Z,98190.38
2023-09-29T14:48:14.226Z,98202.00
2023-09-29T14:50:42.462Z,98202.25
2023-09-29T14:53:10.430Z,98195.25
2023-09-29T14:55:39.945Z,98203.41
2023-09-29T14:58:09.831Z,98199.63
2023-09-29T15:00:42.357Z,98202.75
2023-09-29T15:03:10.467Z,98203.44
2023-09-29T15:05:41.194Z,98207.94
2023-09-29T15:08:09.314Z,98211.53
2023-09-29T15:10:37.444Z,98221.91
2023-09-29T15:13:05.737Z,98229.03
2023-09-29T15:15:35.253Z,98232.34
2023-09-29T15:18:06.060Z,98237.47
2023-09-29T15:20:34.828Z,98250.19
2023-09-29T15:23:02.785Z,98254.44
2023-09-29T15:25:31.144Z,98271.28
2023-09-29T15:27:59.163Z,98275.13
2023-09-29T15:30:27.254Z,98284.94
2023-09-29T15:32:56.731Z,98294.94
2023-09-29T15:35:24.921Z,98304.28
2023-09-29T15:37:52.935Z,98311.66
2023-09-29T15:40:20.872Z,98311.25
2023-09-29T15:42:49.128Z,98321.66
2023-09-29T15:45:17.629Z,98322.50
2023-09-29T15:47:45.957Z,98330.31
2023-09-29T15:50:15.798Z,98333.78
2023-09-29T15:52:45.437Z,98344.00
2023-09-29T15:55:13.505Z,98340.50
2023-09-29T15:57:41.508Z,98342.59
2023-09-29T16:00:10.666Z,98351.69
2023-09-29T16:02:38.848Z,98355.72
2023-09-29T16:05:08.119Z,98351.19
2023-09-29T16:07:37.712Z,98360.56
2023-09-29T16:10:06.740Z,98363.81
2023-09-29T16:12:36.260Z,98371.09
2023-09-29T16:15:05.712Z,98369.97
2023-09-29T16:17:35.141Z,98367.03
2023-09-29T16:20:04.057Z,98371.59
2023-09-29T16:22:33.229Z,98370.94
2023-09-29T16:25:05.444Z,98370.94
2023-09-29T16:27:33.571Z,98379.81
2023-09-29T16:30:01.892Z,98374.50
2023-09-29T16:32:32.498Z,98375.97
2023-09-29T16:35:02.641Z,98389.22
2023-09-29T16:37:32.768Z,98391.97
2023-09-29T16:40:15.109Z,98403.28
2023-09-29T16:42:52.187Z,98401.81
2023-09-29T16:45:20.144Z,98408.38
2023-09-29T16:47:48.178Z,98420.00
2023-09-29T16:50:16.754Z,98422.38
2023-09-29T16:52:44.940Z,98420.72
2023-09-29T16:55:14.686Z,98429.09
2023-09-29T16:57:42.949Z,98431.50
2023-09-29T17:00:12.569Z,98425.38
2023-09-29T17:02:40.700Z,98436.97
2023-09-29T17:05:10.002Z,98446.97
2023-09-29T17:07:38.049Z,98453.72
2023-09-29T17:10:06.783Z,98451.47
2023-09-29T17:12:36.582Z,98465.13
2023-09-29T17:15:05.968Z,98453.53
2023-09-29T17:17:34.061Z,98454.78
2023-09-29T17:20:02.184Z,98457.94
2023-09-29T17:22:30.437Z,98468.09
2023-09-29T17:24:58.857Z,98470.78
2023-09-29T17:27:26.978Z,98465.13
2023-09-29T17:29:56.762Z,98478.94
2023-09-29T17:32:24.903Z,98478.56
2023-09-29T17:34:53.689Z,98480.13
2023-09-29T17:37:21.762Z,98490.09
2023-09-29T17:39:52.064Z,98487.66
2023-09-29T17:42:20.150Z,98489.25
2023-09-29T17:44:48.242Z,98491.28
2023-09-29T17:47:17.565Z,98500.44
2023-09-29T17:49:45.564Z,98500.56
2023-09-29T17:52:13.613Z,98502.41
2023-09-29T17:54:41.576Z,98510.94
2023-09-29T17:57:09.517Z,98508.00
2023-09-29T17:59:38.517Z,98522.06
2023-09-29T18:02:06.444Z,98521.88
2023-09-29T18:04:35.899Z,98518.94
2023-09-29T18:07:06.080Z,98526.66
2023-09-29T18:09:34.115Z,98518.84
2023-09-29T18:12:03.995Z,98519.97
2023-09-29T18:14:32.364Z,98512.56
2023-09-29T18:17:00.517Z,98507.19
2023-09-29T18:19:28.516Z,98503.16
2023-09-29T18:21:57.982Z,98504.16
2023-09-29T18:24:27.664Z,98507.41
2023-09-29T18:26:55.749Z,98505.97
2023-09-29T18:29:26.171Z,98500.31
2023-09-29T18:31:54.182Z,98498.69
2023-09-29T18:34:22.364Z,98501.72
2023-09-29T18:36:50.323Z,98513.19
2023-09-29T18:39:19.955Z,98517.84
2023-09-29T18:41:47.978Z,98509.94
2023-09-29T18:44:16.752Z,98521.03
2023-09-29T18:46:44.842Z,98525.19
2023-09-29T18:49:12.951Z,98526.81
2023-09-29T18:51:41.105Z,98528.22
2023-09-29T18:54:09.212Z,98532.16
2023-09-29T18:56:41.934Z,98539.88
2023-09-29T18:59:10.388Z,98549.50
2023-09-29T19:01:38.410Z,98548.69
2023-09-29T19:04:06.779Z,98561.03
2023-09-29T19:06:34.953Z,98559.72
2023-09-29T19:09:02.981Z,98569.34
2023-09-29T19:11:31.188Z,98572.78
2023-09-29T19:14:00.454Z,98575.91
2023-09-29T19:16:29.515Z,98577.81
2023-09-29T19:18:59.708Z,98579.78
2023-09-29T19:21:27.947Z,98584.44
2023-09-29T19:23:56.139Z,98586.06
2023-09-29T19:26:25.666Z,98594.66
2023-09-29T19:28:54.305Z,98591.94
2023-09-29T19:31:26.757Z,98599.09
2023-09-29T19:33:56.283Z,98599.19
2023-09-29T19:36:28.515Z,98600.69
2023-09-29T19:38:56.928Z,98594.91
2023-09-29T19:41:25.630Z,98602.50
2023-09-29T19:43:53.642Z,98601.09
2023-09-29T19:46:23.543Z,98604.72
2023-09-29T19:48:53.796Z,98597.31
2023-09-29T19:51:23.298Z,98599.63
2023-09-29T19:53:51.349Z,98599.03
2023-09-29T19:56:21.408Z,98608.41
2023-09-29T19:58:52.057Z,98614.75
2023-09-29T20:01:21.704Z,98620.44
2023-09-29T20:03:51.278Z,98615.34
2023-09-29T20:06:20.031Z,98625.53
2023-09-29T20:08:51.015Z,98624.81
2023-09-29T20:11:22.104Z,98630.56
2023-09-29T20:13:50.754Z,98622.28
2023-09-29T20:16:19.361Z,98624.56
2023-09-29T20:18:47.661Z,98629.81
2023-09-29T20:21:18.285Z,98634.25
2023-09-29T20:23:46.738Z,98632.84
2023-09-29T20:26:14.794Z,98629.88
2023-09-29T20:28:43.615Z,98638.38
2023-09-29T20:31:11.791Z,98638.44
2023-09-29T20:33:40.174Z,98637.34
2023-09-29T20:36:08.994Z,98638.44
2023-09-29T20:38:38.309Z,98641.19
2023-09-29T20:41:06.817Z,98649.63
2023-09-29T20:43:34.866Z,98651.53
2023-09-29T20:46:02.900Z,98659.56
2023-09-29T20:48:30.995Z,98645.91
2023-09-29T20:50:59.104Z,98654.47
2023-09-29T20:53:29.797Z,98655.78
2023-09-29T20:55:59.589Z,98652.94
2023-09-29T20:58:30.896Z,98645.69
2023-09-29T21:00:59.883Z,98650.41
2023-09-29T21:03:28.310Z,98643.69
2023-09-29T21:05:56.898Z,98647.00
2023-09-29T21:08:25.225Z,98648.41
2023-09-29T21:10:56.527Z,98654.59
2023-09-29T21:13:26.016Z,98662.91
2023-09-29T21:15:54.477Z,98648.81
2023-09-29T21:18:22.820Z,98647.16
2023-09-29T21:20:54.374Z,98646.13
2023-09-29T21:23:22.369Z,98644.50
2023-09-29T21:25:50.726Z,98652.75
2023-09-29T21:28:19.000Z,98658.78
2023-09-29T21:30:48.415Z,98651.16
2023-09-29T21:33:16.471Z,98658.81
2023-09-29T21:35:44.423Z,98659.16
2023-09-29T21:38:12.424Z,98661.66
2023-09-29T21:40:40.457Z,98672.63
2023-09-29T21:43:08.744Z,98677.41
2023-09-29T21:45:36.712Z,98681.03
2023-09-29T21:48:06.742Z,98676.72
2023-09-29T21:50:34.781Z,98680.06
2023-09-29T21:53:02.759Z,98680.34
2023-09-29T21:55:30.918Z,98683.41
2023-09-29T21:57:58.961Z,98686.88
2023-09-29T22:00:27.073Z,98688.28
2023-09-29T22:02:56.129Z,98690.81
2023-09-29T22:05:25.871Z,98695.47
2023-09-29T22:07:53.764Z,98699.31
2023-09-29T22:10:22.730Z,98701.22
2023-09-29T22:12:50.745Z,98706.41
2023-09-29T22:15:19.909Z,98705.34
2023-09-29T22:17:48.982Z,98704.53
2023-09-29T22:20:21.199Z,98699.44
2023-09-29T22:22:50.950Z,98713.59
2023-09-29T22:25:19.344Z,98716.88
2023-09-29T22:27:47.730Z,98718.25
2023-09-29T22:30:17.149Z,98716.88
2023-09-29T22:32:45.633Z,98714.72
2023-09-29T22:35:13.698Z,98725.88
2023-09-29T22:37:41.723Z,98722.63
2023-09-29T22:40:12.482Z,98727.81
2023-09-29T22:42:40.836Z,98727.84
2023-09-29T22:45:10.125Z,98733.88
2023-09-29T22:47:38.134Z,98724.63
2023-09-29T22:50:06.977Z,98716.72
2023-09-29T22:52:35.585Z,98718.06
2023-09-29T22:55:03.561Z,98722.38
2023-09-29T22:57:33.315Z,98720.47
2023-09-29T23:00:02.080Z,98720.22
2023-09-29T23:02:33.554Z,98724.59
2023-09-29T23:05:01.731Z,98725.41
2023-09-29T23:07:29.763Z,98717.47
2023-09-29T23:09:57.669Z,98721.03
2023-09-29T23:12:25.837Z,98722.69
2023-09-29T23:14:57.079Z,98724.28
2023-09-29T23:17:25.116Z,98720.19
2023-09-29T23:19:53.108Z,98730.88
2023-09-29T23:22:21.157Z,98727.06
2023-09-29T23:24:49.108Z,98730.38
2023-09-29T23:27:17.084Z,98736.94
2023-09-29T23:29:45.231Z,98741.28
2023-09-29T23:32:14.578Z,98748.09
2023-09-29T23:34:42.628Z,98753.78
2023-09-29T23:37:10.789Z,98766.34
2023-09-29T23:39:38.784Z,98771.25
2023-09-29T23:42:07.197Z,98766.09
2023-09-29T23:44:35.253Z,98786.25
2023-09-29T23:47:03.477Z,98781.88
2023-09-29T23:49:32.852Z,98782.44
2023-09-29T23:52:00.941Z,98786.53
2023-09-29T23:54:29.078Z,98787.63
2023-09-29T23:56:57.089Z,98795.78
2023-09-29T23:59:25.144Z,98792.81
